Time;durP1;ratioP1;P1;durP2;ratioP2;P2;SDS_P1;SDS_P2;PMS_P1;PMS_P2;Temp;Humidity;BMP_temperature;BMP_pressure;BME280_temperature;BME280_humidity;BME280_pressure;Samples;Min_cycle;Max_cycle;Signal;HPM_P1;HPM_P2
2019/10/12 00:00:25;;;;;;;3.85;2.55;;;;;;;6.74;100;95339.98;;;;
2019/10/12 00:01:32;;;;;;;3.85;2.55;;;;;;;6.74;100;95339.98;;;;
2019/10/12 00:02:34;;;;;;;3.85;2.55;;;;;;;6.74;100;95339.98;;;;
2019/10/12 00:03:35;;;;;;;3.85;2.55;;;;;;;6.74;100;95339.98;;;;
2019/10/12 00:04:36;;;;;;;3.85;2.55;;;;;;;6.74;100;95339.98;;;;
2019/10/12 00:05:49;;;;;;;3.85;2.55;;;;;;;6.74;100;95339.98;;;;
2019/10/12 00:06:51;;;;;;;3.85;2.55;;;;;;;6.74;100;95339.98;;;;
2019/10/12 00:07:52;;;;;;;5;2.45;;;;;;;6.72;100;95341.63;;;;
2019/10/12 00:08:53;;;;;;;5;2.45;;;;;;;6.72;100;95341.63;;;;
2019/10/12 00:09:58;;;;;;;5;2.45;;;;;;;6.72;100;95341.63;;;;
2019/10/12 00:12:07;;;;;;;5;2.45;;;;;;;6.72;100;95341.63;;;;
2019/10/12 00:13:19;;;;;;;5;2.45;;;;;;;6.72;100;95341.63;;;;
2019/10/12 00:14:54;;;;;;;5;2.45;;;;;;;6.72;100;95341.63;;;;
2019/10/12 00:15:55;;;;;;;5;2.45;;;;;;;6.72;100;95341.63;;;;
2019/10/12 00:17:03;;;;;;;5;2.45;;;;;;;6.72;100;95341.63;;;;
2019/10/12 00:18:05;;;;;;;5;2.45;;;;;;;6.72;100;95341.63;;;;
2019/10/12 00:19:06;;;;;;;3.3;2.5;;;;;;;6.78;100;95325.62;;;;
2019/10/12 00:20:07;;;;;;;3.3;2.5;;;;;;;6.78;100;95325.62;;;;
2019/10/12 00:21:32;;;;;;;3.3;2.5;;;;;;;6.78;100;95325.62;;;;
2019/10/12 00:22:33;;;;;;;3.3;2.5;;;;;;;6.78;100;95325.62;;;;
2019/10/12 00:23:34;;;;;;;3.3;2.5;;;;;;;6.78;100;95325.62;;;;
2019/10/12 00:24:35;;;;;;;3.3;2.5;;;;;;;6.78;100;95325.62;;;;
2019/10/12 00:25:36;;;;;;;3.3;2.5;;;;;;;6.78;100;95325.62;;;;
2019/10/12 00:26:55;;;;;;;3.3;2.5;;;;;;;6.78;100;95325.62;;;;
2019/10/12 00:27:56;;;;;;;3.3;2.5;;;;;;;6.78;100;95325.62;;;;
2019/10/12 00:28:57;;;;;;;4.2;2.4;;;;;;;6.72;100;95328.63;;;;
2019/10/12 00:29:58;;;;;;;4.2;2.4;;;;;;;6.72;100;95328.63;;;;
2019/10/12 00:30:59;;;;;;;4.2;2.4;;;;;;;6.72;100;95328.63;;;;
2019/10/12 00:32:01;;;;;;;4.2;2.4;;;;;;;6.72;100;95328.63;;;;
2019/10/12 00:33:02;;;;;;;4.2;2.4;;;;;;;6.72;100;95328.63;;;;
2019/10/12 00:34:03;;;;;;;4.2;2.4;;;;;;;6.72;100;95328.63;;;;
2019/10/12 00:35:04;;;;;;;4.2;2.4;;;;;;;6.72;100;95328.63;;;;
2019/10/12 00:36:06;;;;;;;4.2;2.4;;;;;;;6.72;100;95328.63;;;;
2019/10/12 00:37:07;;;;;;;4.2;2.4;;;;;;;6.72;100;95328.63;;;;
2019/10/12 00:38:08;;;;;;;4.2;2.4;;;;;;;6.72;100;95328.63;;;;
2019/10/12 00:39:09;;;;;;;4.2;2.4;;;;;;;6.72;100;95328.63;;;;
2019/10/12 00:40:11;;;;;;;5.95;2.45;;;;;;;6.8;100;95327.58;;;;
2019/10/12 00:41:12;;;;;;;5.95;2.45;;;;;;;6.8;100;95327.58;;;;
2019/10/12 00:42:13;;;;;;;5.95;2.45;;;;;;;6.8;100;95327.58;;;;
2019/10/12 00:43:14;;;;;;;5.95;2.45;;;;;;;6.8;100;95327.58;;;;
2019/10/12 00:44:15;;;;;;;5.95;2.45;;;;;;;6.8;100;95327.58;;;;
2019/10/12 00:45:16;;;;;;;5.95;2.45;;;;;;;6.8;100;95327.58;;;;
2019/10/12 00:46:18;;;;;;;5.95;2.45;;;;;;;6.8;100;95327.58;;;;
2019/10/12 00:47:19;;;;;;;5.95;2.45;;;;;;;6.8;100;95327.58;;;;
2019/10/12 00:48:20;;;;;;;5.95;2.45;;;;;;;6.8;100;95327.58;;;;
2019/10/12 00:49:21;;;;;;;5.95;2.45;;;;;;;6.8;100;95327.58;;;;
2019/10/12 00:50:22;;;;;;;3.9;2.5;;;;;;;6.77;100;95330.57;;;;
2019/10/12 00:51:23;;;;;;;3.9;2.5;;;;;;;6.77;100;95330.57;;;;
2019/10/12 00:52:25;;;;;;;3.9;2.5;;;;;;;6.77;100;95330.57;;;;
2019/10/12 00:53:26;;;;;;;3.9;2.5;;;;;;;6.77;100;95330.57;;;;
2019/10/12 00:54:27;;;;;;;3.9;2.5;;;;;;;6.77;100;95330.57;;;;
2019/10/12 00:55:28;;;;;;;3.9;2.5;;;;;;;6.77;100;95330.57;;;;
2019/10/12 00:56:54;;;;;;;3.9;2.5;;;;;;;6.77;100;95330.57;;;;
2019/10/12 00:57:55;;;;;;;3.9;2.5;;;;;;;6.77;100;95330.57;;;;
2019/10/12 00:58:56;;;;;;;3.9;2.5;;;;;;;6.77;100;95330.57;;;;
2019/10/12 00:59:57;;;;;;;3.9;2.5;;;;;;;6.77;100;95330.57;;;;
2019/10/12 01:00:59;;;;;;;3.2;2.1;;;;;;;6.73;100;95335.21;;;;
2019/10/12 01:02:00;;;;;;;3.2;2.1;;;;;;;6.73;100;95335.21;;;;
2019/10/12 01:03:02;;;;;;;3.2;2.1;;;;;;;6.73;100;95335.21;;;;
2019/10/12 01:04:03;;;;;;;3.2;2.1;;;;;;;6.73;100;95335.21;;;;
2019/10/12 01:05:04;;;;;;;3.2;2.1;;;;;;;6.73;100;95335.21;;;;
2019/10/12 01:06:05;;;;;;;3.2;2.1;;;;;;;6.73;100;95335.21;;;;
2019/10/12 01:07:08;;;;;;;3.2;2.1;;;;;;;6.73;100;95335.21;;;;
2019/10/12 01:08:09;;;;;;;3.2;2.1;;;;;;;6.73;100;95335.21;;;;
2019/10/12 01:09:10;;;;;;;3.2;2.1;;;;;;;6.73;100;95335.21;;;;
2019/10/12 01:10:15;;;;;;;3.2;2.1;;;;;;;6.73;100;95335.21;;;;
2019/10/12 01:11:17;;;;;;;3;2.2;;;;;;;6.57;100;95340.11;;;;
2019/10/12 01:12:18;;;;;;;3;2.2;;;;;;;6.57;100;95340.11;;;;
2019/10/12 01:13:19;;;;;;;3;2.2;;;;;;;6.57;100;95340.11;;;;
2019/10/12 01:14:20;;;;;;;3;2.2;;;;;;;6.57;100;95340.11;;;;
2019/10/12 01:15:22;;;;;;;3;2.2;;;;;;;6.57;100;95340.11;;;;
2019/10/12 01:16:23;;;;;;;3;2.2;;;;;;;6.57;100;95340.11;;;;
2019/10/12 01:17:24;;;;;;;3;2.2;;;;;;;6.57;100;95340.11;;;;
2019/10/12 01:18:25;;;;;;;3;2.2;;;;;;;6.57;100;95340.11;;;;
2019/10/12 01:19:26;;;;;;;3;2.2;;;;;;;6.57;100;95340.11;;;;
2019/10/12 01:20:28;;;;;;;3;2.2;;;;;;;6.57;100;95340.11;;;;
2019/10/12 01:21:29;;;;;;;3;2.2;;;;;;;6.57;100;95340.11;;;;
2019/10/12 01:22:30;;;;;;;2.9;1.95;;;;;;;6.45;100;95324.78;;;;
2019/10/12 01:23:31;;;;;;;2.9;1.95;;;;;;;6.45;100;95324.78;;;;
2019/10/12 01:24:33;;;;;;;2.9;1.95;;;;;;;6.45;100;95324.78;;;;
2019/10/12 01:25:34;;;;;;;2.9;1.95;;;;;;;6.45;100;95324.78;;;;
2019/10/12 01:26:35;;;;;;;2.9;1.95;;;;;;;6.45;100;95324.78;;;;
2019/10/12 01:27:36;;;;;;;2.9;1.95;;;;;;;6.45;100;95324.78;;;;
2019/10/12 01:28:37;;;;;;;2.9;1.95;;;;;;;6.45;100;95324.78;;;;
2019/10/12 01:29:39;;;;;;;2.9;1.95;;;;;;;6.45;100;95324.78;;;;
2019/10/12 01:30:40;;;;;;;2.9;1.95;;;;;;;6.45;100;95324.78;;;;
2019/10/12 01:31:41;;;;;;;2.9;1.95;;;;;;;6.45;100;95324.78;;;;
2019/10/12 01:32:43;;;;;;;2.4;1.85;;;;;;;6.23;100;95314.4;;;;
2019/10/12 01:33:44;;;;;;;2.4;1.85;;;;;;;6.23;100;95314.4;;;;
2019/10/12 01:34:45;;;;;;;2.4;1.85;;;;;;;6.23;100;95314.4;;;;
2019/10/12 01:35:46;;;;;;;2.4;1.85;;;;;;;6.23;100;95314.4;;;;
2019/10/12 01:36:47;;;;;;;2.4;1.85;;;;;;;6.23;100;95314.4;;;;
2019/10/12 01:37:49;;;;;;;2.4;1.85;;;;;;;6.23;100;95314.4;;;;
2019/10/12 01:38:50;;;;;;;2.4;1.85;;;;;;;6.23;100;95314.4;;;;
2019/10/12 01:39:51;;;;;;;2.4;1.85;;;;;;;6.23;100;95314.4;;;;
2019/10/12 01:40:52;;;;;;;2.4;1.85;;;;;;;6.23;100;95314.4;;;;
2019/10/12 01:41:53;;;;;;;2.4;1.85;;;;;;;6.23;100;95314.4;;;;
2019/10/12 01:42:55;;;;;;;2.4;1.85;;;;;;;6.23;100;95314.4;;;;
2019/10/12 01:43:56;;;;;;;2.5;2.3;;;;;;;6.09;100;95315.03;;;;
2019/10/12 01:44:57;;;;;;;2.5;2.3;;;;;;;6.09;100;95315.03;;;;
2019/10/12 01:45:58;;;;;;;2.5;2.3;;;;;;;6.09;100;95315.03;;;;
2019/10/12 01:46:59;;;;;;;2.5;2.3;;;;;;;6.09;100;95315.03;;;;
2019/10/12 01:48:01;;;;;;;2.5;2.3;;;;;;;6.09;100;95315.03;;;;
2019/10/12 01:49:02;;;;;;;2.5;2.3;;;;;;;6.09;100;95315.03;;;;
2019/10/12 01:50:03;;;;;;;2.5;2.3;;;;;;;6.09;100;95315.03;;;;
2019/10/12 01:51:05;;;;;;;2.5;2.3;;;;;;;6.09;100;95315.03;;;;
2019/10/12 01:52:06;;;;;;;2.5;2.3;;;;;;;6.09;100;95315.03;;;;
2019/10/12 01:53:07;;;;;;;2.5;2.3;;;;;;;6.09;100;95315.03;;;;
2019/10/12 01:54:09;;;;;;;2.35;2.15;;;;;;;5.9;100;95313.58;;;;
2019/10/12 01:55:10;;;;;;;2.35;2.15;;;;;;;5.9;100;95313.58;;;;
2019/10/12 01:56:11;;;;;;;2.35;2.15;;;;;;;5.9;100;95313.58;;;;
2019/10/12 01:57:13;;;;;;;2.35;2.15;;;;;;;5.9;100;95313.58;;;;
2019/10/12 01:58:14;;;;;;;2.35;2.15;;;;;;;5.9;100;95313.58;;;;
2019/10/12 01:59:15;;;;;;;2.35;2.15;;;;;;;5.9;100;95313.58;;;;
2019/10/12 02:00:16;;;;;;;2.35;2.15;;;;;;;5.9;100;95313.58;;;;
2019/10/12 02:01:20;;;;;;;2.35;2.15;;;;;;;5.9;100;95313.58;;;;
2019/10/12 02:02:21;;;;;;;2.35;2.15;;;;;;;5.9;100;95313.58;;;;
2019/10/12 02:03:23;;;;;;;2.35;2.15;;;;;;;5.9;100;95313.58;;;;
2019/10/12 02:04:24;;;;;;;4.9;2.35;;;;;;;5.98;100;95314.82;;;;
2019/10/12 02:05:25;;;;;;;4.9;2.35;;;;;;;5.98;100;95314.82;;;;
2019/10/12 02:06:30;;;;;;;4.9;2.35;;;;;;;5.98;100;95314.82;;;;
2019/10/12 02:07:34;;;;;;;4.9;2.35;;;;;;;5.98;100;95314.82;;;;
2019/10/12 02:09:12;;;;;;;4.9;2.35;;;;;;;5.98;100;95314.82;;;;
2019/10/12 02:10:14;;;;;;;4.9;2.35;;;;;;;5.98;100;95314.82;;;;
2019/10/12 02:11:16;;;;;;;4.9;2.35;;;;;;;5.98;100;95314.82;;;;
2019/10/12 02:12:17;;;;;;;4.9;2.35;;;;;;;5.98;100;95314.82;;;;
2019/10/12 02:13:18;;;;;;;4.9;2.35;;;;;;;5.98;100;95314.82;;;;
2019/10/12 02:14:19;;;;;;;4.9;2.35;;;;;;;5.98;100;95314.82;;;;
2019/10/12 02:15:21;;;;;;;5.799999;2;;;;;;;6.16;100;95314.5;;;;
2019/10/12 02:16:22;;;;;;;5.799999;2;;;;;;;6.16;100;95314.5;;;;
2019/10/12 02:17:23;;;;;;;5.799999;2;;;;;;;6.16;100;95314.5;;;;
2019/10/12 02:18:24;;;;;;;5.799999;2;;;;;;;6.16;100;95314.5;;;;
2019/10/12 02:19:26;;;;;;;5.799999;2;;;;;;;6.16;100;95314.5;;;;
2019/10/12 02:20:27;;;;;;;5.799999;2;;;;;;;6.16;100;95314.5;;;;
2019/10/12 02:21:28;;;;;;;5.799999;2;;;;;;;6.16;100;95314.5;;;;
2019/10/12 02:22:30;;;;;;;5.799999;2;;;;;;;6.16;100;95314.5;;;;
2019/10/12 02:23:31;;;;;;;5.799999;2;;;;;;;6.16;100;95314.5;;;;
2019/10/12 02:24:32;;;;;;;5.799999;2;;;;;;;6.16;100;95314.5;;;;
2019/10/12 02:25:33;;;;;;;2.8;2.3;;;;;;;6.39;100;95320.36;;;;
2019/10/12 02:26:35;;;;;;;2.8;2.3;;;;;;;6.39;100;95320.36;;;;
2019/10/12 02:27:36;;;;;;;2.8;2.3;;;;;;;6.39;100;95320.36;;;;
2019/10/12 02:28:37;;;;;;;2.8;2.3;;;;;;;6.39;100;95320.36;;;;
2019/10/12 02:29:38;;;;;;;2.8;2.3;;;;;;;6.39;100;95320.36;;;;
2019/10/12 02:30:39;;;;;;;2.8;2.3;;;;;;;6.39;100;95320.36;;;;
2019/10/12 02:31:40;;;;;;;2.8;2.3;;;;;;;6.39;100;95320.36;;;;
2019/10/12 02:32:42;;;;;;;2.8;2.3;;;;;;;6.39;100;95320.36;;;;
2019/10/12 02:33:43;;;;;;;2.8;2.3;;;;;;;6.39;100;95320.36;;;;
2019/10/12 02:34:44;;;;;;;2.8;2.3;;;;;;;6.39;100;95320.36;;;;
2019/10/12 02:35:45;;;;;;;2.8;2.3;;;;;;;6.39;100;95320.36;;;;
2019/10/12 02:36:46;;;;;;;2.950001;2.05;;;;;;;6.39;100;95319.41;;;;
2019/10/12 02:37:47;;;;;;;2.950001;2.05;;;;;;;6.39;100;95319.41;;;;
2019/10/12 02:38:48;;;;;;;2.950001;2.05;;;;;;;6.39;100;95319.41;;;;
2019/10/12 02:39:49;;;;;;;2.950001;2.05;;;;;;;6.39;100;95319.41;;;;
2019/10/12 02:40:51;;;;;;;2.950001;2.05;;;;;;;6.39;100;95319.41;;;;
2019/10/12 02:41:52;;;;;;;2.950001;2.05;;;;;;;6.39;100;95319.41;;;;
2019/10/12 02:42:53;;;;;;;2.950001;2.05;;;;;;;6.39;100;95319.41;;;;
2019/10/12 02:43:54;;;;;;;2.950001;2.05;;;;;;;6.39;100;95319.41;;;;
2019/10/12 02:44:55;;;;;;;2.950001;2.05;;;;;;;6.39;100;95319.41;;;;
2019/10/12 02:45:56;;;;;;;2.950001;2.05;;;;;;;6.39;100;95319.41;;;;
2019/10/12 02:46:58;;;;;;;4.8;2.2;;;;;;;6.41;100;95321.78;;;;
2019/10/12 02:48:01;;;;;;;4.8;2.2;;;;;;;6.41;100;95321.78;;;;
2019/10/12 02:49:08;;;;;;;4.8;2.2;;;;;;;6.41;100;95321.78;;;;
2019/10/12 02:50:16;;;;;;;4.8;2.2;;;;;;;6.41;100;95321.78;;;;
2019/10/12 02:53:31;;;;;;;4.8;2.2;;;;;;;6.41;100;95321.78;;;;
2019/10/12 02:54:34;;;;;;;4.8;2.2;;;;;;;6.41;100;95321.78;;;;
2019/10/12 02:55:35;;;;;;;4.8;2.2;;;;;;;6.41;100;95321.78;;;;
2019/10/12 02:56:36;;;;;;;4.8;2.2;;;;;;;6.41;100;95321.78;;;;
2019/10/12 02:57:42;;;;;;;2.3;2;;;;;;;6.3;100;95317.47;;;;
2019/10/12 02:58:44;;;;;;;2.3;2;;;;;;;6.3;100;95317.47;;;;
2019/10/12 02:59:47;;;;;;;2.3;2;;;;;;;6.3;100;95317.47;;;;
2019/10/12 03:02:28;;;;;;;2.3;2;;;;;;;6.3;100;95317.47;;;;
2019/10/12 03:03:29;;;;;;;2.3;2;;;;;;;6.3;100;95317.47;;;;
2019/10/12 03:04:37;;;;;;;2.3;2;;;;;;;6.3;100;95317.47;;;;
2019/10/12 03:05:58;;;;;;;2.3;2;;;;;;;6.3;100;95317.47;;;;
2019/10/12 03:06:59;;;;;;;2.3;2;;;;;;;6.3;100;95317.47;;;;
2019/10/12 03:08:01;;;;;;;2.45;2;;;;;;;6.25;100;95316.44;;;;
2019/10/12 03:09:02;;;;;;;2.45;2;;;;;;;6.25;100;95316.44;;;;
2019/10/12 03:10:07;;;;;;;2.45;2;;;;;;;6.25;100;95316.44;;;;
2019/10/12 03:11:15;;;;;;;2.45;2;;;;;;;6.25;100;95316.44;;;;
2019/10/12 03:12:49;;;;;;;2.45;2;;;;;;;6.25;100;95316.44;;;;
2019/10/12 03:13:51;;;;;;;2.45;2;;;;;;;6.25;100;95316.44;;;;
2019/10/12 03:14:52;;;;;;;2.45;2;;;;;;;6.25;100;95316.44;;;;
2019/10/12 03:15:53;;;;;;;2.45;2;;;;;;;6.25;100;95316.44;;;;
2019/10/12 03:16:54;;;;;;;2.45;2;;;;;;;6.25;100;95316.44;;;;
2019/10/12 03:17:57;;;;;;;2.45;2;;;;;;;6.25;100;95316.44;;;;
2019/10/12 03:18:58;;;;;;;3.2;2.1;;;;;;;6.16;100;95312.33;;;;
2019/10/12 03:19:59;;;;;;;3.2;2.1;;;;;;;6.16;100;95312.33;;;;
2019/10/12 03:21:00;;;;;;;3.2;2.1;;;;;;;6.16;100;95312.33;;;;
2019/10/12 03:22:02;;;;;;;3.2;2.1;;;;;;;6.16;100;95312.33;;;;
2019/10/12 03:23:04;;;;;;;3.2;2.1;;;;;;;6.16;100;95312.33;;;;
2019/10/12 03:24:05;;;;;;;3.2;2.1;;;;;;;6.16;100;95312.33;;;;
2019/10/12 03:25:07;;;;;;;3.2;2.1;;;;;;;6.16;100;95312.33;;;;
2019/10/12 03:26:08;;;;;;;3.2;2.1;;;;;;;6.16;100;95312.33;;;;
2019/10/12 03:27:09;;;;;;;3.2;2.1;;;;;;;6.16;100;95312.33;;;;
2019/10/12 03:28:11;;;;;;;3.2;2.1;;;;;;;6.16;100;95312.33;;;;
2019/10/12 03:29:12;;;;;;;2.6;1.9;;;;;;;6.13;100;95317.19;;;;
2019/10/12 03:30:13;;;;;;;2.6;1.9;;;;;;;6.13;100;95317.19;;;;
2019/10/12 03:32:17;;;;;;;2.6;1.9;;;;;;;6.13;100;95317.19;;;;
2019/10/12 03:33:18;;;;;;;2.6;1.9;;;;;;;6.13;100;95317.19;;;;
2019/10/12 03:34:20;;;;;;;2.6;1.9;;;;;;;6.13;100;95317.19;;;;
2019/10/12 03:35:21;;;;;;;2.6;1.9;;;;;;;6.13;100;95317.19;;;;
2019/10/12 03:36:23;;;;;;;2.6;1.9;;;;;;;6.13;100;95317.19;;;;
2019/10/12 03:37:24;;;;;;;2.6;1.9;;;;;;;6.13;100;95317.19;;;;
2019/10/12 03:38:25;;;;;;;2.6;1.9;;;;;;;6.13;100;95317.19;;;;
2019/10/12 03:39:26;;;;;;;2.6;1.9;;;;;;;6.13;100;95317.19;;;;
2019/10/12 03:40:28;;;;;;;4.1;1.95;;;;;;;6.01;100;95320.59;;;;
2019/10/12 03:41:30;;;;;;;4.1;1.95;;;;;;;6.01;100;95320.59;;;;
2019/10/12 03:42:31;;;;;;;4.1;1.95;;;;;;;6.01;100;95320.59;;;;
2019/10/12 03:50:24;;;;;;;3.3;2.15;;;;;;;5.98;100;95310.3;;;;
2019/10/12 03:56:35;;;;;;;3.3;2.15;;;;;;;5.98;100;95310.3;;;;
2019/10/12 03:58:36;;;;;;;3.3;2.15;;;;;;;5.98;100;95310.3;;;;
2019/10/12 03:59:40;;;;;;;3.3;2.15;;;;;;;5.98;100;95310.3;;;;
2019/10/12 04:00:45;;;;;;;3.3;2.15;;;;;;;5.98;100;95310.3;;;;
2019/10/12 04:01:46;;;;;;;6.150001;2;;;;;;;5.95;100;95312.56;;;;
2019/10/12 04:02:47;;;;;;;6.150001;2;;;;;;;5.95;100;95312.56;;;;
2019/10/12 04:03:48;;;;;;;6.150001;2;;;;;;;5.95;100;95312.56;;;;
2019/10/12 04:04:52;;;;;;;6.150001;2;;;;;;;5.95;100;95312.56;;;;
2019/10/12 04:05:53;;;;;;;6.150001;2;;;;;;;5.95;100;95312.56;;;;
2019/10/12 04:06:54;;;;;;;6.150001;2;;;;;;;5.95;100;95312.56;;;;
2019/10/12 04:07:55;;;;;;;6.150001;2;;;;;;;5.95;100;95312.56;;;;
2019/10/12 04:08:57;;;;;;;6.150001;2;;;;;;;5.95;100;95312.56;;;;
2019/10/12 04:09:59;;;;;;;6.150001;2;;;;;;;5.95;100;95312.56;;;;
2019/10/12 04:11:00;;;;;;;6.150001;2;;;;;;;5.95;100;95312.56;;;;
2019/10/12 04:12:01;;;;;;;4.65;2.2;;;;;;;5.97;100;95310.38;;;;
2019/10/12 04:13:03;;;;;;;4.65;2.2;;;;;;;5.97;100;95310.38;;;;
2019/10/12 04:14:04;;;;;;;4.65;2.2;;;;;;;5.97;100;95310.38;;;;
2019/10/12 04:15:06;;;;;;;4.65;2.2;;;;;;;5.97;100;95310.38;;;;
2019/10/12 04:16:07;;;;;;;4.65;2.2;;;;;;;5.97;100;95310.38;;;;
2019/10/12 04:17:11;;;;;;;4.65;2.2;;;;;;;5.97;100;95310.38;;;;
2019/10/12 04:18:23;;;;;;;4.65;2.2;;;;;;;5.97;100;95310.38;;;;
2019/10/12 04:20:51;;;;;;;4.65;2.2;;;;;;;5.97;100;95310.38;;;;
2019/10/12 04:22:22;;;;;;;2.45;2.2;;;;;;;5.89;100;95319.98;;;;
2019/10/12 04:23:24;;;;;;;2.45;2.2;;;;;;;5.89;100;95319.98;;;;
2019/10/12 04:24:25;;;;;;;2.45;2.2;;;;;;;5.89;100;95319.98;;;;
2019/10/12 04:25:26;;;;;;;2.45;2.2;;;;;;;5.89;100;95319.98;;;;
2019/10/12 04:26:28;;;;;;;2.45;2.2;;;;;;;5.89;100;95319.98;;;;
2019/10/12 04:27:30;;;;;;;2.45;2.2;;;;;;;5.89;100;95319.98;;;;
2019/10/12 04:28:32;;;;;;;2.45;2.2;;;;;;;5.89;100;95319.98;;;;
2019/10/12 04:29:33;;;;;;;2.45;2.2;;;;;;;5.89;100;95319.98;;;;
2019/10/12 04:30:35;;;;;;;2.45;2.2;;;;;;;5.89;100;95319.98;;;;
2019/10/12 04:31:36;;;;;;;2.45;2.2;;;;;;;5.89;100;95319.98;;;;
2019/10/12 04:32:37;;;;;;;2.45;2.2;;;;;;;5.89;100;95319.98;;;;
2019/10/12 04:33:38;;;;;;;4.2;2;;;;;;;5.86;100;95317.82;;;;
2019/10/12 04:34:39;;;;;;;4.2;2;;;;;;;5.86;100;95317.82;;;;
2019/10/12 04:35:40;;;;;;;4.2;2;;;;;;;5.86;100;95317.82;;;;
2019/10/12 04:36:43;;;;;;;4.2;2;;;;;;;5.86;100;95317.82;;;;
2019/10/12 04:37:44;;;;;;;4.2;2;;;;;;;5.86;100;95317.82;;;;
2019/10/12 04:38:45;;;;;;;4.2;2;;;;;;;5.86;100;95317.82;;;;
2019/10/12 04:39:46;;;;;;;4.2;2;;;;;;;5.86;100;95317.82;;;;
2019/10/12 04:40:47;;;;;;;4.2;2;;;;;;;5.86;100;95317.82;;;;
2019/10/12 04:41:48;;;;;;;4.2;2;;;;;;;5.86;100;95317.82;;;;
2019/10/12 04:42:50;;;;;;;4.2;2;;;;;;;5.86;100;95317.82;;;;
2019/10/12 04:43:51;;;;;;;2.65;1.85;;;;;;;5.75;100;95316.97;;;;
2019/10/12 04:44:52;;;;;;;2.65;1.85;;;;;;;5.75;100;95316.97;;;;
2019/10/12 04:45:53;;;;;;;2.65;1.85;;;;;;;5.75;100;95316.97;;;;
2019/10/12 04:46:54;;;;;;;2.65;1.85;;;;;;;5.75;100;95316.97;;;;
2019/10/12 04:47:55;;;;;;;2.65;1.85;;;;;;;5.75;100;95316.97;;;;
2019/10/12 04:48:56;;;;;;;2.65;1.85;;;;;;;5.75;100;95316.97;;;;
2019/10/12 04:49:57;;;;;;;2.65;1.85;;;;;;;5.75;100;95316.97;;;;
2019/10/12 04:50:59;;;;;;;2.65;1.85;;;;;;;5.75;100;95316.97;;;;
2019/10/12 04:52:00;;;;;;;2.65;1.85;;;;;;;5.75;100;95316.97;;;;
2019/10/12 04:53:01;;;;;;;2.65;1.85;;;;;;;5.75;100;95316.97;;;;
2019/10/12 04:54:03;;;;;;;3;2.1;;;;;;;5.73;100;95322.63;;;;
2019/10/12 04:55:04;;;;;;;3;2.1;;;;;;;5.73;100;95322.63;;;;
2019/10/12 04:56:05;;;;;;;3;2.1;;;;;;;5.73;100;95322.63;;;;
2019/10/12 04:57:06;;;;;;;3;2.1;;;;;;;5.73;100;95322.63;;;;
2019/10/12 04:58:08;;;;;;;3;2.1;;;;;;;5.73;100;95322.63;;;;
2019/10/12 04:59:09;;;;;;;3;2.1;;;;;;;5.73;100;95322.63;;;;
2019/10/12 05:00:10;;;;;;;3;2.1;;;;;;;5.73;100;95322.63;;;;
2019/10/12 05:01:11;;;;;;;3;2.1;;;;;;;5.73;100;95322.63;;;;
2019/10/12 05:02:12;;;;;;;3;2.1;;;;;;;5.73;100;95322.63;;;;
2019/10/12 05:03:13;;;;;;;3;2.1;;;;;;;5.73;100;95322.63;;;;
2019/10/12 05:04:15;;;;;;;3;2.1;;;;;;;5.73;100;95322.63;;;;
2019/10/12 05:05:16;;;;;;;3.8;1.9;;;;;;;5.64;100;95319.42;;;;
2019/10/12 05:06:17;;;;;;;3.8;1.9;;;;;;;5.64;100;95319.42;;;;
2019/10/12 05:07:18;;;;;;;3.8;1.9;;;;;;;5.64;100;95319.42;;;;
2019/10/12 05:08:19;;;;;;;3.8;1.9;;;;;;;5.64;100;95319.42;;;;
2019/10/12 05:09:21;;;;;;;3.8;1.9;;;;;;;5.64;100;95319.42;;;;
2019/10/12 05:10:22;;;;;;;3.8;1.9;;;;;;;5.64;100;95319.42;;;;
2019/10/12 05:11:23;;;;;;;3.8;1.9;;;;;;;5.64;100;95319.42;;;;
2019/10/12 05:12:24;;;;;;;3.8;1.9;;;;;;;5.64;100;95319.42;;;;
2019/10/12 05:13:25;;;;;;;3.8;1.9;;;;;;;5.64;100;95319.42;;;;
2019/10/12 05:14:26;;;;;;;3.8;1.9;;;;;;;5.64;100;95319.42;;;;
2019/10/12 05:15:28;;;;;;;4.25;1.9;;;;;;;5.65;100;95314.39;;;;
2019/10/12 05:16:29;;;;;;;4.25;1.9;;;;;;;5.65;100;95314.39;;;;
2019/10/12 05:17:30;;;;;;;4.25;1.9;;;;;;;5.65;100;95314.39;;;;
2019/10/12 05:18:31;;;;;;;4.25;1.9;;;;;;;5.65;100;95314.39;;;;
2019/10/12 05:19:32;;;;;;;4.25;1.9;;;;;;;5.65;100;95314.39;;;;
2019/10/12 05:20:33;;;;;;;4.25;1.9;;;;;;;5.65;100;95314.39;;;;
2019/10/12 05:21:34;;;;;;;4.25;1.9;;;;;;;5.65;100;95314.39;;;;
2019/10/12 05:22:36;;;;;;;4.25;1.9;;;;;;;5.65;100;95314.39;;;;
2019/10/12 05:23:37;;;;;;;4.25;1.9;;;;;;;5.65;100;95314.39;;;;
2019/10/12 05:24:38;;;;;;;4.25;1.9;;;;;;;5.65;100;95314.39;;;;
2019/10/12 05:25:39;;;;;;;4.25;1.9;;;;;;;5.65;100;95314.39;;;;
2019/10/12 05:26:41;;;;;;;3.4;2.05;;;;;;;5.71;100;95317.07;;;;
2019/10/12 05:27:42;;;;;;;3.4;2.05;;;;;;;5.71;100;95317.07;;;;
2019/10/12 05:28:43;;;;;;;3.4;2.05;;;;;;;5.71;100;95317.07;;;;
2019/10/12 05:29:44;;;;;;;3.4;2.05;;;;;;;5.71;100;95317.07;;;;
2019/10/12 05:30:45;;;;;;;3.4;2.05;;;;;;;5.71;100;95317.07;;;;
2019/10/12 05:31:46;;;;;;;3.4;2.05;;;;;;;5.71;100;95317.07;;;;
2019/10/12 05:32:47;;;;;;;3.4;2.05;;;;;;;5.71;100;95317.07;;;;
2019/10/12 05:33:48;;;;;;;3.4;2.05;;;;;;;5.71;100;95317.07;;;;
2019/10/12 05:34:50;;;;;;;3.4;2.05;;;;;;;5.71;100;95317.07;;;;
2019/10/12 05:35:51;;;;;;;3.4;2.05;;;;;;;5.71;100;95317.07;;;;
2019/10/12 05:36:52;;;;;;;4.449999;2.1;;;;;;;5.89;100;95317.31;;;;
2019/10/12 05:37:53;;;;;;;4.449999;2.1;;;;;;;5.89;100;95317.31;;;;
2019/10/12 05:38:54;;;;;;;4.449999;2.1;;;;;;;5.89;100;95317.31;;;;
2019/10/12 05:39:55;;;;;;;4.449999;2.1;;;;;;;5.89;100;95317.31;;;;
2019/10/12 05:40:56;;;;;;;4.449999;2.1;;;;;;;5.89;100;95317.31;;;;
2019/10/12 05:41:57;;;;;;;4.449999;2.1;;;;;;;5.89;100;95317.31;;;;
2019/10/12 05:42:59;;;;;;;4.449999;2.1;;;;;;;5.89;100;95317.31;;;;
2019/10/12 05:44:00;;;;;;;4.449999;2.1;;;;;;;5.89;100;95317.31;;;;
2019/10/12 05:45:01;;;;;;;4.449999;2.1;;;;;;;5.89;100;95317.31;;;;
2019/10/12 05:46:03;;;;;;;4.449999;2.1;;;;;;;5.89;100;95317.31;;;;
2019/10/12 05:47:04;;;;;;;2.2;1.85;;;;;;;6.1;100;95337.31;;;;
2019/10/12 05:48:05;;;;;;;2.2;1.85;;;;;;;6.1;100;95337.31;;;;
2019/10/12 05:49:06;;;;;;;2.2;1.85;;;;;;;6.1;100;95337.31;;;;
2019/10/12 05:50:07;;;;;;;2.2;1.85;;;;;;;6.1;100;95337.31;;;;
2019/10/12 05:51:08;;;;;;;2.2;1.85;;;;;;;6.1;100;95337.31;;;;
2019/10/12 05:52:09;;;;;;;2.2;1.85;;;;;;;6.1;100;95337.31;;;;
2019/10/12 05:53:11;;;;;;;2.2;1.85;;;;;;;6.1;100;95337.31;;;;
2019/10/12 05:54:12;;;;;;;2.2;1.85;;;;;;;6.1;100;95337.31;;;;
2019/10/12 05:55:13;;;;;;;2.2;1.85;;;;;;;6.1;100;95337.31;;;;
2019/10/12 05:56:14;;;;;;;2.2;1.85;;;;;;;6.1;100;95337.31;;;;
2019/10/12 05:57:15;;;;;;;2.2;1.85;;;;;;;6.1;100;95337.31;;;;
2019/10/12 05:58:16;;;;;;;2.55;1.7;;;;;;;6.53;100;95337.15;;;;
2019/10/12 05:59:17;;;;;;;2.55;1.7;;;;;;;6.53;100;95337.15;;;;
2019/10/12 06:00:19;;;;;;;2.55;1.7;;;;;;;6.53;100;95337.15;;;;
2019/10/12 06:01:20;;;;;;;2.55;1.7;;;;;;;6.53;100;95337.15;;;;
2019/10/12 06:02:21;;;;;;;2.55;1.7;;;;;;;6.53;100;95337.15;;;;
2019/10/12 06:03:22;;;;;;;2.55;1.7;;;;;;;6.53;100;95337.15;;;;
2019/10/12 06:04:23;;;;;;;2.55;1.7;;;;;;;6.53;100;95337.15;;;;
2019/10/12 06:05:24;;;;;;;2.55;1.7;;;;;;;6.53;100;95337.15;;;;
2019/10/12 06:06:26;;;;;;;2.55;1.7;;;;;;;6.53;100;95337.15;;;;
2019/10/12 06:07:27;;;;;;;2.55;1.7;;;;;;;6.53;100;95337.15;;;;
2019/10/12 06:08:28;;;;;;;2.4;1.7;;;;;;;6.91;100;95343;;;;
2019/10/12 06:09:29;;;;;;;2.4;1.7;;;;;;;6.91;100;95343;;;;
2019/10/12 06:10:30;;;;;;;2.4;1.7;;;;;;;6.91;100;95343;;;;
2019/10/12 06:11:31;;;;;;;2.4;1.7;;;;;;;6.91;100;95343;;;;
2019/10/12 06:12:33;;;;;;;2.4;1.7;;;;;;;6.91;100;95343;;;;
2019/10/12 06:13:34;;;;;;;2.4;1.7;;;;;;;6.91;100;95343;;;;
2019/10/12 06:14:35;;;;;;;2.4;1.7;;;;;;;6.91;100;95343;;;;
2019/10/12 06:17:00;;;;;;;2.4;1.7;;;;;;;6.91;100;95343;;;;
2019/10/12 06:18:02;;;;;;;2.4;1.7;;;;;;;6.91;100;95343;;;;
2019/10/12 06:19:06;;;;;;;3.2;1.6;;;;;;;7.34;100;95353.06;;;;
2019/10/12 06:20:07;;;;;;;3.2;1.6;;;;;;;7.34;100;95353.06;;;;
2019/10/12 06:21:09;;;;;;;3.2;1.6;;;;;;;7.34;100;95353.06;;;;
2019/10/12 06:22:10;;;;;;;3.2;1.6;;;;;;;7.34;100;95353.06;;;;
2019/10/12 06:23:11;;;;;;;3.2;1.6;;;;;;;7.34;100;95353.06;;;;
2019/10/12 06:24:12;;;;;;;3.2;1.6;;;;;;;7.34;100;95353.06;;;;
2019/10/12 06:25:13;;;;;;;3.2;1.6;;;;;;;7.34;100;95353.06;;;;
2019/10/12 06:26:14;;;;;;;3.2;1.6;;;;;;;7.34;100;95353.06;;;;
2019/10/12 06:27:15;;;;;;;3.2;1.6;;;;;;;7.34;100;95353.06;;;;
2019/10/12 06:28:17;;;;;;;3.2;1.6;;;;;;;7.34;100;95353.06;;;;
2019/10/12 06:29:18;;;;;;;3.2;1.6;;;;;;;7.34;100;95353.06;;;;
2019/10/12 06:30:19;;;;;;;2.45;1.7;;;;;;;7.64;100;95357.23;;;;
2019/10/12 06:31:20;;;;;;;2.45;1.7;;;;;;;7.64;100;95357.23;;;;
2019/10/12 06:32:21;;;;;;;2.45;1.7;;;;;;;7.64;100;95357.23;;;;
2019/10/12 06:33:22;;;;;;;2.45;1.7;;;;;;;7.64;100;95357.23;;;;
2019/10/12 06:34:23;;;;;;;2.45;1.7;;;;;;;7.64;100;95357.23;;;;
2019/10/12 06:35:24;;;;;;;2.45;1.7;;;;;;;7.64;100;95357.23;;;;
2019/10/12 06:36:26;;;;;;;2.45;1.7;;;;;;;7.64;100;95357.23;;;;
2019/10/12 06:37:27;;;;;;;2.45;1.7;;;;;;;7.64;100;95357.23;;;;
2019/10/12 06:38:28;;;;;;;2.45;1.7;;;;;;;7.64;100;95357.23;;;;
2019/10/12 06:39:29;;;;;;;2.45;1.7;;;;;;;7.64;100;95357.23;;;;
2019/10/12 06:40:30;;;;;;;1.95;1.75;;;;;;;7.98;100;95367.55;;;;
2019/10/12 06:41:31;;;;;;;1.95;1.75;;;;;;;7.98;100;95367.55;;;;
2019/10/12 06:42:32;;;;;;;1.95;1.75;;;;;;;7.98;100;95367.55;;;;
2019/10/12 06:43:34;;;;;;;1.95;1.75;;;;;;;7.98;100;95367.55;;;;
2019/10/12 06:44:35;;;;;;;1.95;1.75;;;;;;;7.98;100;95367.55;;;;
2019/10/12 06:45:36;;;;;;;1.95;1.75;;;;;;;7.98;100;95367.55;;;;
2019/10/12 06:46:37;;;;;;;1.95;1.75;;;;;;;7.98;100;95367.55;;;;
2019/10/12 06:47:38;;;;;;;1.95;1.75;;;;;;;7.98;100;95367.55;;;;
2019/10/12 06:48:39;;;;;;;1.95;1.75;;;;;;;7.98;100;95367.55;;;;
2019/10/12 06:49:40;;;;;;;1.95;1.75;;;;;;;7.98;100;95367.55;;;;
2019/10/12 06:50:41;;;;;;;1.95;1.75;;;;;;;7.98;100;95367.55;;;;
2019/10/12 06:51:42;;;;;;;1.8;1.6;;;;;;;8.39;100;95377.8;;;;
2019/10/12 06:52:44;;;;;;;1.8;1.6;;;;;;;8.39;100;95377.8;;;;
2019/10/12 06:53:45;;;;;;;1.8;1.6;;;;;;;8.39;100;95377.8;;;;
2019/10/12 06:54:46;;;;;;;1.8;1.6;;;;;;;8.39;100;95377.8;;;;